Time;durP1;ratioP1;P1;durP2;ratioP2;P2;SDS_P1;SDS_P2;PMS_P1;PMS_P2;Temp;Humidity;BMP_temperature;BMP_pressure;BME280_temperature;BME280_humidity;BME280_pressure;Samples;Min_cycle;Max_cycle;Signal;HPM_P1;HPM_P2
2022/08/01 00:01:36;;;;;;;19.30;12.90;;;;;;;18.69;100.00;101629.34;6125735;23;20014;-80
2022/08/01 00:04:03;;;;;;;18.77;12.48;;;;;;;18.56;100.00;101603.34;6125686;23;20002;-80
2022/08/01 00:06:29;;;;;;;18.75;13.18;;;;;;;18.69;100.00;101624.13;6125979;23;20010;-76
2022/08/01 00:08:54;;;;;;;17.60;12.93;;;;;;;18.61;100.00;101617.72;6126162;23;20088;-79
2022/08/01 00:11:20;;;;;;;19.27;13.38;;;;;;;18.68;100.00;101619.81;6125789;23;20006;-78
2022/08/01 00:13:45;;;;;;;18.48;13.77;;;;;;;18.54;100.00;101606.09;6125739;23;20014;-78
2022/08/01 00:16:10;;;;;;;19.65;13.35;;;;;;;18.65;100.00;101630.56;6125666;23;20014;-76
2022/08/01 00:18:36;;;;;;;19.92;13.63;;;;;;;18.71;100.00;101635.28;6125432;23;20010;-74
2022/08/01 00:21:02;;;;;;;22.33;14.18;;;;;;;18.66;100.00;101619.13;6125089;23;20017;-74
2022/08/01 00:23:28;;;;;;;21.40;14.02;;;;;;;18.72;100.00;101631.69;6126019;23;20063;-73
2022/08/01 00:25:53;;;;;;;20.48;14.20;;;;;;;18.72;100.00;101634.31;6126022;23;20428;-74
2022/08/01 00:28:18;;;;;;;23.45;14.38;;;;;;;18.72;100.00;101631.69;6125682;23;20077;-74
2022/08/01 00:30:44;;;;;;;19.83;14.50;;;;;;;18.70;100.00;101634.44;6125763;23;20006;-74
2022/08/01 00:33:09;;;;;;;19.92;13.60;;;;;;;18.68;100.00;101628.53;6125745;23;20025;-78
2022/08/01 00:35:35;;;;;;;20.92;14.15;;;;;;;18.66;100.00;101629.59;6125931;23;20021;-81
2022/08/01 00:38:00;;;;;;;22.20;14.57;;;;;;;18.70;100.00;101646.72;6125650;23;20017;-74
2022/08/01 00:40:25;;;;;;;27.10;16.02;;;;;;;18.70;100.00;101644.09;6125804;23;20085;-75
2022/08/01 00:42:50;;;;;;;23.05;16.95;;;;;;;18.54;100.00;101627.03;6125737;23;20002;-78
2022/08/01 00:45:16;;;;;;;23.10;17.17;;;;;;;18.66;100.00;101647.91;6125784;23;20009;-75
2022/08/01 00:47:41;;;;;;;24.08;16.23;;;;;;;18.63;100.00;101646.34;6125576;23;20002;-78
2022/08/01 00:50:07;;;;;;;26.98;16.52;;;;;;;18.61;100.00;101649.09;6125626;23;20017;-75
2022/08/01 00:52:34;;;;;;;23.88;16.05;;;;;;;18.59;100.00;101645.78;6125677;23;20009;-77
2022/08/01 00:54:59;;;;;;;21.77;14.55;;;;;;;18.56;100.00;101648.66;6125645;23;20484;-75
2022/08/01 00:57:25;;;;;;;22.23;15.50;;;;;;;18.54;100.00;101644.50;6125769;23;20030;-75
2022/08/01 00:59:52;;;;;;;25.65;15.50;;;;;;;18.52;100.00;101646.44;6126242;23;20118;-76
2022/08/01 01:02:17;;;;;;;21.08;15.15;;;;;;;18.61;100.00;101656.13;6127531;23;20455;-75
2022/08/01 01:04:43;;;;;;;24.20;15.52;;;;;;;18.58;100.00;101654.59;6127759;23;20096;-75
2022/08/01 01:07:35;;;;;;;21.45;15.63;;;;;;;18.60;100.00;101650.06;6127903;23;20012;-75
2022/08/01 01:10:12;;;;;;;21.75;13.73;;;;;;;18.51;100.00;101644.78;6127702;23;20483;-75
2022/08/01 01:12:59;;;;;;;20.67;13.00;;;;;;;18.55;100.00;101654.84;6127441;23;20001;-75
2022/08/01 01:15:36;;;;;;;19.27;12.30;;;;;;;18.52;100.00;101654.28;6127521;23;20030;-76
2022/08/01 01:18:57;;;;;;;18.60;12.18;;;;;;;18.51;100.00;101650.81;6127215;23;20377;-75
2022/08/01 01:21:54;;;;;;;16.42;11.07;;;;;;;18.54;100.00;101647.94;6065986;23;20341;-75
2022/08/01 01:24:22;;;;;;;15.98;11.68;;;;;;;18.48;100.00;101642.38;6066847;23;20091;-75
2022/08/01 01:27:06;;;;;;;17.77;11.43;;;;;;;18.42;100.00;101641.13;6066782;23;20086;-75
2022/08/01 01:29:33;;;;;;;15.35;10.18;;;;;;;18.40;100.00;101643.06;6066780;23;20026;-75
2022/08/01 01:32:05;;;;;;;15.43;10.02;;;;;;;18.38;100.00;101644.94;6066624;23;20365;-77
2022/08/01 01:34:35;;;;;;;16.23;10.48;;;;;;;18.32;100.00;101629.78;6066648;23;20098;-75
2022/08/01 01:37:04;;;;;;;14.18;9.75;;;;;;;18.37;100.00;101639.84;6066744;23;20015;-75
2022/08/01 01:39:32;;;;;;;14.10;9.70;;;;;;;18.34;100.00;101636.53;6066769;23;20643;-75
2022/08/01 01:41:58;;;;;;;14.77;9.98;;;;;;;18.23;100.00;101623.53;6066861;23;20006;-73
2022/08/01 01:44:25;;;;;;;16.38;9.82;;;;;;;18.20;100.00;101612.50;6066614;23;20030;-79
2022/08/01 01:46:52;;;;;;;16.88;10.10;;;;;;;18.34;100.00;101641.75;6066486;23;20042;-74
2022/08/01 01:49:23;;;;;;;15.23;9.85;;;;;;;18.33;100.00;101642.72;6066375;23;20054;-80
2022/08/01 01:51:50;;;;;;;;;;;;;;;18.39;100.00;101644.00;6096972;23;20436;-81
2022/08/01 01:54:15;;;;;;;14.27;9.65;;;;;;;18.30;100.00;101645.59;6127639;23;19916;-76
2022/08/01 01:56:48;;;;;;;16.83;10.60;;;;;;;18.28;100.00;101646.66;6127168;23;20010;-80
2022/08/01 01:59:18;;;;;;;13.50;9.75;;;;;;;18.28;100.00;101644.88;6127530;23;20006;-81
2022/08/01 02:01:44;;;;;;;14.05;10.48;;;;;;;18.26;100.00;101635.50;6127140;23;20337;-80
2022/08/01 02:04:11;;;;;;;13.80;9.55;;;;;;;18.26;100.00;101644.16;6126987;23;20021;-81
2022/08/01 02:06:38;;;;;;;16.15;10.43;;;;;;;18.25;100.00;101639.06;6127329;23;20097;-80
2022/08/01 02:09:05;;;;;;;17.02;10.32;;;;;;;18.22;100.00;101634.94;6126910;23;20429;-75
2022/08/01 02:11:31;;;;;;;16.15;9.82;;;;;;;18.09;100.00;101622.97;6127036;23;20416;-75
2022/08/01 02:14:03;;;;;;;16.90;9.95;;;;;;;18.10;100.00;101630.72;6127173;23;20014;-73
2022/08/01 02:16:33;;;;;;;15.88;10.18;;;;;;;18.10;100.00;101650.81;6127222;23;20006;-74
2022/08/01 02:18:59;;;;;;;18.23;10.73;;;;;;;18.07;100.00;101646.63;6126693;23;20318;-80
2022/08/01 02:21:41;;;;;;;13.90;9.90;;;;;;;18.05;100.00;101649.38;6126721;23;20009;-81
2022/08/01 02:24:43;;;;;;;14.02;9.98;;;;;;;18.02;100.00;101640.97;6127101;23;20336;-81
2022/08/01 02:27:12;;;;;;;16.23;10.63;;;;;;;18.04;100.00;101639.06;6009109;23;20007;-81
2022/08/01 02:29:46;;;;;;;14.00;9.02;;;;;;;18.09;100.00;101641.28;6009028;23;20438;-78
2022/08/01 02:32:19;;;;;;;15.07;9.68;;;;;;;17.94;100.00;101622.47;6009167;23;20112;-81
2022/08/01 02:34:48;;;;;;;17.08;10.77;;;;;;;18.09;100.00;101644.72;6009009;23;20404;-81
2022/08/01 02:37:14;;;;;;;16.63;10.30;;;;;;;18.09;100.00;101647.34;6009473;23;20008;-80
2022/08/01 02:39:40;;;;;;;18.27;9.90;;;;;;;17.96;100.00;101639.69;6009131;23;20019;-79
2022/08/01 02:42:08;;;;;;;14.95;10.15;;;;;;;17.97;100.00;101637.88;6009093;23;20086;-81
2022/08/01 02:44:39;;;;;;;15.15;10.13;;;;;;;17.97;100.00;101628.25;6009035;23;20011;-80
2022/08/01 02:47:05;;;;;;;;;;;;;;;18.15;100.00;101648.63;6009586;23;20012;-75
2022/08/01 02:49:36;;;;;;;15.40;9.77;;;;;;;17.95;100.00;101629.34;6008829;23;19917;-76
2022/08/01 02:52:05;;;;;;;16.00;9.52;;;;;;;18.00;100.00;101638.50;6009290;23;20081;-75
2022/08/01 02:54:33;;;;;;;17.58;11.07;;;;;;;18.02;100.00;101644.41;6009095;23;20076;-75
2022/08/01 02:57:00;;;;;;;17.48;10.55;;;;;;;17.96;100.00;101652.75;6008965;23;20007;-76
2022/08/01 02:59:27;;;;;;;16.75;10.32;;;;;;;17.81;100.00;101635.69;6009029;23;20454;-75
2022/08/01 03:01:56;;;;;;;16.05;10.10;;;;;;;17.69;100.00;101628.78;6009057;23;20044;-77
2022/08/01 03:04:26;;;;;;;18.25;10.73;;;;;;;17.63;100.00;101626.69;6087856;23;20021;-75
2022/08/01 03:06:54;;;;;;;15.98;10.00;;;;;;;17.68;100.00;101638.41;6101210;23;20013;-75
2022/08/01 03:09:21;;;;;;;16.90;9.77;;;;;;;17.66;100.00;101639.50;6126429;23;20500;-75
2022/08/01 03:11:47;;;;;;;16.48;11.32;;;;;;;17.58;100.00;101634.06;6126403;23;20440;-75
2022/08/01 03:14:15;;;;;;;16.02;9.50;;;;;;;17.58;100.00;101645.31;6126692;23;20016;-74
2022/08/01 03:16:44;;;;;;;17.23;9.98;;;;;;;17.46;100.00;101638.47;6126691;23;20010;-75
2022/08/01 03:19:11;;;;;;;18.45;10.32;;;;;;;17.45;100.00;101644.66;6126026;23;20060;-75
2022/08/01 03:21:38;;;;;;;18.48;11.43;;;;;;;17.44;100.00;101645.59;6126368;23;20313;-75
2022/08/01 03:24:06;;;;;;;16.33;10.13;;;;;;;17.38;100.00;101649.50;6126440;23;20002;-75
2022/08/01 03:26:34;;;;;;;17.05;10.70;;;;;;;17.24;100.00;101641.94;6126078;23;20006;-79
2022/08/01 03:29:09;;;;;;;15.82;10.40;;;;;;;17.27;100.00;101659.16;6126704;23;20369;-75
2022/08/01 03:31:37;;;;;;;18.10;10.23;;;;;;;17.09;100.00;101643.97;6126153;23;20005;-75
2022/08/01 03:34:03;;;;;;;19.13;11.30;;;;;;;16.89;100.00;101619.41;6126188;23;20357;-78
2022/08/01 03:36:31;;;;;;;18.63;11.45;;;;;;;17.11;100.00;101656.91;6126328;23;20009;-81
2022/08/01 03:39:00;;;;;;;19.35;11.68;;;;;;;17.10;100.00;101660.44;6126259;23;20006;-78
2022/08/01 03:41:31;;;;;;;20.75;11.98;;;;;;;17.05;100.00;101654.75;6100153;23;20015;-79
2022/08/01 03:44:09;;;;;;;20.23;12.15;;;;;;;16.99;100.00;101663.88;6126399;23;20029;-79
2022/08/01 03:46:51;;;;;;;19.17;11.77;;;;;;;16.98;100.00;101662.22;6126335;23;20024;-81
2022/08/01 03:49:21;;;;;;;19.02;11.43;;;;;;;16.90;100.00;101665.41;6126120;23;20432;-74
2022/08/01 03:51:49;;;;;;;19.17;11.18;;;;;;;16.92;100.00;101663.53;6125942;23;20052;-76
2022/08/01 03:54:20;;;;;;;21.13;11.98;;;;;;;16.94;100.00;101667.81;6126061;23;20017;-75
2022/08/01 03:56:48;;;;;;;20.00;12.50;;;;;;;16.98;100.00;101664.00;6126397;23;20010;-75
2022/08/01 03:59:16;;;;;;;20.45;12.25;;;;;;;16.94;100.00;101654.75;6126252;23;20005;-75
2022/08/01 04:01:42;;;;;;;20.65;11.60;;;;;;;17.08;100.00;101660.56;6125972;23;20019;-74
2022/08/01 04:04:08;;;;;;;19.25;11.82;;;;;;;17.04;100.00;101661.75;6126337;23;20321;-75
2022/08/01 04:06:37;;;;;;;21.38;12.10;;;;;;;17.04;100.00;101671.38;6099655;23;20006;-75
2022/08/01 04:09:03;;;;;;;20.38;11.32;;;;;;;17.00;100.00;101670.75;6125965;23;20002;-74
2022/08/01 04:11:28;;;;;;;18.38;10.95;;;;;;;16.96;100.00;101663.28;6125864;23;20006;-76
2022/08/01 04:13:54;;;;;;;19.95;11.63;;;;;;;16.92;100.00;101663.53;6126056;23;20030;-75
2022/08/01 04:16:21;;;;;;;16.67;10.52;;;;;;;16.89;100.00;101673.34;6125875;23;20002;-76
2022/08/01 04:18:47;;;;;;;19.67;11.45;;;;;;;16.85;100.00;101662.34;6125903;23;20009;-75
2022/08/01 04:21:13;;;;;;;16.75;10.45;;;;;;;16.82;100.00;101659.13;6125543;23;20415;-74
2022/08/01 04:23:43;;;;;;;19.48;11.02;;;;;;;16.83;100.00;101672.06;6099863;23;20021;-74
2022/08/01 04:26:09;;;;;;;17.50;11.02;;;;;;;16.80;100.00;101677.50;6125835;23;20006;-76
2022/08/01 04:28:36;;;;;;;21.88;11.25;;;;;;;16.78;100.00;101673.34;6125877;23;20005;-75
2022/08/01 04:31:05;;;;;;;17.08;10.60;;;;;;;16.78;100.00;101679.38;6125938;23;20332;-76
2022/08/01 04:33:32;;;;;;;18.70;10.25;;;;;;;16.76;100.00;101680.47;6125853;23;20376;-75
2022/08/01 04:36:01;;;;;;;19.27;10.95;;;;;;;16.75;100.00;101671.81;6125373;23;20002;-74
2022/08/01 04:38:28;;;;;;;19.67;10.55;;;;;;;16.74;100.00;101677.97;6125694;23;20435;-75
2022/08/01 04:40:54;;;;;;;18.58;10.48;;;;;;;16.70;100.00;101670.47;6126058;23;20002;-75
2022/08/01 04:43:21;;;;;;;19.45;11.07;;;;;;;16.77;100.00;101679.50;6126066;23;20056;-75
2022/08/01 04:45:47;;;;;;;19.48;10.32;;;;;;;16.69;100.00;101667.03;6125929;23;20045;-73
2022/08/01 04:48:15;;;;;;;18.48;10.38;;;;;;;16.76;100.00;101688.28;6125864;23;20006;-75
2022/08/01 04:50:41;;;;;;;18.13;10.18;;;;;;;16.76;100.00;101677.84;6125590;23;20002;-75
2022/08/01 04:53:13;;;;;;;17.65;10.02;;;;;;;16.78;100.00;101681.16;6125362;23;20017;-75
2022/08/01 04:55:38;;;;;;;18.20;9.85;;;;;;;16.82;100.00;101687.84;6125654;23;20053;-75
2022/08/01 04:58:04;;;;;;;19.02;10.32;;;;;;;16.85;100.00;101690.19;6125960;23;20356;-75
2022/08/01 05:00:30;;;;;;;17.90;10.13;;;;;;;16.84;100.00;101688.53;6125667;23;20002;-75
2022/08/01 05:02:55;;;;;;;17.90;10.70;;;;;;;16.82;100.00;101683.44;6125408;23;20006;-74
2022/08/01 05:05:21;;;;;;;19.42;10.38;;;;;;;16.92;100.00;101691.41;6125803;23;20009;-75
2022/08/01 05:07:46;;;;;;;18.00;10.15;;;;;;;16.97;100.00;101691.03;6125700;23;20306;-76
2022/08/01 05:10:12;;;;;;;18.15;10.05;;;;;;;17.12;100.00;101695.09;6125892;23;20002;-75
2022/08/01 05:12:37;;;;;;;18.98;11.27;;;;;;;17.28;100.00;101690.34;6125667;23;20085;-74
2022/08/01 05:15:03;;;;;;;17.40;10.20;;;;;;;17.40;100.00;101694.63;6099654;23;20417;-74
2022/08/01 05:17:28;;;;;;;18.27;9.68;;;;;;;17.59;100.00;101680.09;6122108;23;20102;-73
2022/08/01 05:19:53;;;;;;;14.38;8.27;;;;;;;18.06;100.00;101690.25;6125834;23;20010;-73
2022/08/01 05:22:20;;;;;;;13.43;7.43;;;;;;;18.59;100.00;101697.28;6125358;23;20045;-72
2022/08/01 05:24:46;;;;;;;11.38;5.78;;;;;;;19.13;96.96;101701.47;6125630;23;20006;-72
2022/08/01 05:27:13;;;;;;;10.25;6.65;;;;;;;19.56;93.93;101696.00;6125505;23;20045;-70
2022/08/01 05:29:38;;;;;;;12.60;7.15;;;;;;;19.70;91.92;101697.44;6125808;23;20041;-72
2022/08/01 05:32:04;;;;;;;10.18;5.68;;;;;;;19.72;91.08;101706.81;6125242;23;20006;-73
2022/08/01 05:34:29;;;;;;;11.88;5.43;;;;;;;19.74;90.24;101699.63;6125318;23;20010;-74
2022/08/01 05:36:55;;;;;;;9.65;5.35;;;;;;;19.94;89.31;101716.22;6124523;23;20045;-72
2022/08/01 05:39:20;;;;;;;7.88;3.83;;;;;;;20.09;88.09;101705.34;6126406;23;20049;-71
2022/08/01 05:41:45;;;;;;;11.35;5.95;;;;;;;20.17;88.02;101701.09;6125415;23;20009;-70
2022/08/01 05:44:11;;;;;;;9.63;5.43;;;;;;;20.37;86.30;101701.91;6125323;23;20005;-73
2022/08/01 05:46:37;;;;;;;9.80;5.57;;;;;;;20.58;85.33;101714.91;6126846;23;20053;-73
2022/08/01 05:49:03;;;;;;;9.13;5.22;;;;;;;20.59;85.74;101713.94;6127397;23;20412;-72
2022/08/01 05:51:29;;;;;;;8.68;4.65;;;;;;;20.49;85.62;101710.50;6127099;23;20432;-72
2022/08/01 05:53:55;;;;;;;8.77;4.43;;;;;;;20.39;85.43;101693.91;6126961;23;20053;-72
2022/08/01 05:56:21;;;;;;;7.88;4.80;;;;;;;20.57;84.94;101713.25;6126905;23;20017;-74
2022/08/01 05:58:47;;;;;;;7.47;4.55;;;;;;;20.99;83.89;101712.88;6127332;23;20009;-72
2022/08/01 06:01:12;;;;;;;9.52;5.28;;;;;;;21.28;82.48;101708.38;6127291;23;20006;-73
2022/08/01 06:03:37;;;;;;;7.53;4.53;;;;;;;21.30;81.59;101716.94;6127081;23;20002;-71
2022/08/01 06:06:04;;;;;;;9.60;5.32;;;;;;;20.98;81.97;101717.31;6127156;23;20030;-73
2022/08/01 06:08:30;;;;;;;10.27;6.00;;;;;;;20.42;83.75;101680.50;6126940;23;20409;-72
2022/08/01 06:10:57;;;;;;;6.82;4.32;;;;;;;20.52;83.80;101720.69;6126797;23;20009;-72
2022/08/01 06:13:22;;;;;;;7.82;4.57;;;;;;;20.26;85.71;101723.88;6126590;23;20010;-71
2022/08/01 06:15:48;;;;;;;8.00;4.13;;;;;;;20.12;85.77;101705.91;6127382;23;20125;-71
2022/08/01 06:18:14;;;;;;;8.27;5.32;;;;;;;20.10;86.34;101718.31;6127057;23;20038;-74
2022/08/01 06:20:39;;;;;;;8.30;4.00;;;;;;;20.17;86.14;101724.69;6127285;23;20014;-70
2022/08/01 06:23:05;;;;;;;6.07;4.15;;;;;;;20.10;86.27;101720.94;6126765;23;20324;-71
2022/08/01 06:25:31;;;;;;;6.07;3.90;;;;;;;20.20;86.34;101720.94;6126752;23;20057;-73
2022/08/01 06:27:56;;;;;;;8.18;4.28;;;;;;;20.30;85.56;101722.59;6126328;23;20006;-73
2022/08/01 06:30:21;;;;;;;7.38;3.40;;;;;;;20.47;84.22;101723.75;6126681;23;20006;-74
2022/08/01 06:32:47;;;;;;;5.88;3.47;;;;;;;20.92;83.35;101723.94;6126913;23;20002;-72
2022/08/01 06:35:13;;;;;;;6.55;3.17;;;;;;;21.25;79.89;101727.03;6126734;23;20100;-76
2022/08/01 06:37:38;;;;;;;5.10;3.20;;;;;;;21.05;79.76;101735.94;6099781;23;20010;-71
2022/08/01 06:40:06;;;;;;;5.03;3.17;;;;;;;20.90;81.19;101730.31;6126869;23;20041;-71
2022/08/01 06:42:35;;;;;;;6.25;2.92;;;;;;;20.88;81.55;101734.88;6126397;23;20391;-71
2022/08/01 06:45:06;;;;;;;5.15;3.00;;;;;;;20.78;81.44;101729.66;6126790;23;20065;-73
2022/08/01 06:47:31;;;;;;;5.38;2.85;;;;;;;20.73;81.46;101699.53;6126424;23;20006;-74
2022/08/01 06:49:56;;;;;;;5.43;3.50;;;;;;;21.06;80.34;101738.44;6126897;23;20378;-75
2022/08/01 06:52:22;;;;;;;4.88;3.10;;;;;;;21.19;79.22;101741.56;6126516;23;20028;-73
2022/08/01 06:54:47;;;;;;;7.32;3.85;;;;;;;21.20;79.33;101722.19;6126822;23;20038;-73
2022/08/01 06:57:12;;;;;;;5.47;2.88;;;;;;;21.77;78.35;101748.38;6126338;23;20409;-72
2022/08/01 06:59:38;;;;;;;7.20;3.35;;;;;;;21.96;76.34;101748.28;6126483;23;20557;-72
2022/08/01 07:02:03;;;;;;;5.82;2.90;;;;;;;21.92;77.23;101749.53;6126821;23;20005;-72
2022/08/01 07:04:29;;;;;;;5.75;3.83;;;;;;;21.68;76.95;101730.88;6126374;23;20017;-73
2022/08/01 07:06:55;;;;;;;7.18;3.67;;;;;;;21.56;77.90;101748.63;6126575;23;20369;-72
2022/08/01 07:09:20;;;;;;;6.47;3.38;;;;;;;21.37;78.85;101740.84;6126350;23;20013;-72
2022/08/01 07:11:45;;;;;;;5.30;3.65;;;;;;;21.38;78.53;101753.81;6126748;23;20025;-72
2022/08/01 07:14:11;;;;;;;5.00;2.80;;;;;;;21.50;78.65;101749.22;6126262;23;20134;-71
2022/08/01 07:16:36;;;;;;;5.65;3.03;;;;;;;21.54;79.78;101755.84;6126813;23;20002;-71
2022/08/01 07:19:02;;;;;;;5.43;3.20;;;;;;;21.58;78.68;101749.31;6126180;23;20014;-71
2022/08/01 07:21:27;;;;;;;5.45;3.20;;;;;;;21.47;78.50;101729.31;6126463;23;20014;-71
2022/08/01 07:23:52;;;;;;;5.13;3.25;;;;;;;21.62;77.19;101737.53;6126183;23;20006;-72
2022/08/01 07:26:18;;;;;;;5.63;3.28;;;;;;;21.84;76.53;101753.91;6126307;23;20001;-72
2022/08/01 07:28:43;;;;;;;4.55;3.03;;;;;;;22.38;75.03;101750.34;6126214;23;20002;-72
2022/08/01 07:31:08;;;;;;;6.35;3.47;;;;;;;22.96;72.11;101749.84;6126116;23;20009;-73
2022/08/01 07:33:33;;;;;;;5.75;3.33;;;;;;;22.86;71.85;101751.75;6126406;23;20006;-72
2022/08/01 07:35:59;;;;;;;5.70;3.38;;;;;;;22.65;72.77;101749.41;6126435;23;20041;-74
2022/08/01 07:38:24;;;;;;;4.38;2.67;;;;;;;22.55;72.86;101741.63;6125853;23;20420;-75
2022/08/01 07:40:49;;;;;;;5.85;2.85;;;;;;;22.57;73.86;101754.63;6126593;23;20006;-74
2022/08/01 07:43:15;;;;;;;5.05;3.25;;;;;;;22.67;72.82;101759.78;6126363;23;20129;-75
2022/08/01 07:45:41;;;;;;;5.03;2.90;;;;;;;22.75;72.66;101754.59;6126136;23;20006;-74
2022/08/01 07:48:07;;;;;;;3.95;3.10;;;;;;;22.92;70.80;101766.13;6126049;23;20013;-73
2022/08/01 07:50:33;;;;;;;4.47;3.10;;;;;;;23.05;70.53;101764.72;6126102;23;20009;-73
2022/08/01 07:52:59;;;;;;;4.55;3.55;;;;;;;23.13;70.24;101769.22;6125836;23;20006;-75
2022/08/01 07:55:24;;;;;;;5.65;3.33;;;;;;;23.22;71.45;101770.91;6126065;23;20006;-74
2022/08/01 07:57:50;;;;;;;5.07;3.42;;;;;;;23.10;69.60;101745.78;6125997;23;20424;-74
2022/08/01 08:00:16;;;;;;;5.47;3.55;;;;;;;23.22;69.97;101746.38;6125879;23;20006;-74
2022/08/01 08:02:42;;;;;;;4.63;3.50;;;;;;;23.38;69.32;101772.78;6125831;23;20016;-71
2022/08/01 08:05:07;;;;;;;5.43;3.50;;;;;;;23.23;67.67;101748.03;6125602;23;20009;-71
2022/08/01 08:07:33;;;;;;;6.00;3.78;;;;;;;23.17;69.40;101763.47;6125813;23;20065;-72
2022/08/01 08:09:58;;;;;;;5.90;3.88;;;;;;;23.26;69.56;101774.06;6125752;23;20006;-71
2022/08/01 08:12:24;;;;;;;5.32;3.63;;;;;;;23.24;69.29;101768.13;6126016;23;20467;-72
2022/08/01 08:14:49;;;;;;;5.60;4.35;;;;;;;23.25;69.84;101760.03;6126013;23;20041;-72
2022/08/01 08:17:14;;;;;;;6.20;4.30;;;;;;;23.64;67.49;101751.69;6125674;23;20006;-71
2022/08/01 08:19:40;;;;;;;6.25;3.95;;;;;;;23.69;68.27;101763.38;6125356;23;20089;-71
2022/08/01 08:22:07;;;;;;;5.43;3.85;;;;;;;23.69;66.91;101768.66;6125954;23;20009;-70
2022/08/01 08:24:33;;;;;;;5.05;3.65;;;;;;;23.61;67.94;101767.84;6125606;23;20375;-70
2022/08/01 08:27:00;;;;;;;6.63;3.80;;;;;;;23.60;68.50;101769.66;6125863;23;20001;-71
2022/08/01 08:29:28;;;;;;;5.75;3.97;;;;;;;23.50;68.27;101773.34;6125585;23;20451;-71
2022/08/01 08:31:57;;;;;;;4.88;3.40;;;;;;;23.44;69.46;101778.28;6125839;23;20010;-73
2022/08/01 08:34:23;;;;;;;5.20;3.53;;;;;;;23.27;69.72;101765.16;6125526;23;20032;-73
2022/08/01 08:36:49;;;;;;;6.40;3.80;;;;;;;23.24;69.20;101763.66;6126164;23;20328;-72
2022/08/01 08:39:14;;;;;;;5.47;3.50;;;;;;;23.23;70.03;101748.03;6125545;23;20002;-72
2022/08/01 08:41:40;;;;;;;5.68;3.70;;;;;;;23.57;69.17;101777.00;6125838;23;20416;-72
2022/08/01 08:44:08;;;;;;;4.85;3.85;;;;;;;23.94;68.98;101785.41;6125742;23;20006;-72
2022/08/01 08:46:39;;;;;;;4.45;3.20;;;;;;;24.15;67.75;101774.41;6125805;23;20009;-72
2022/08/01 08:49:06;;;;;;;3.88;2.58;;;;;;;24.39;66.86;101780.75;6125582;23;20013;-71
2022/08/01 08:51:34;;;;;;;5.07;3.00;;;;;;;24.43;67.43;101779.41;6125681;23;20328;-72
2022/08/01 08:54:02;;;;;;;5.18;3.35;;;;;;;24.41;64.49;101779.59;6125696;23;20328;-73
2022/08/01 08:56:29;;;;;;;4.40;2.90;;;;;;;24.45;66.76;101780.06;6114327;23;20033;-73
2022/08/01 08:58:55;;;;;;;3.50;2.55;;;;;;;24.33;64.12;101782.22;6125715;23;20030;-72
2022/08/01 09:01:21;;;;;;;3.67;2.83;;;;;;;24.08;64.86;101767.28;6125230;23;20037;-73
2022/08/01 09:03:47;;;;;;;6.35;2.63;;;;;;;23.79;64.43;101772.97;6125922;23;20049;-73
2022/08/01 09:06:12;;;;;;;4.13;2.60;;;;;;;23.86;64.80;101785.38;6125550;23;20006;-73
2022/08/01 09:08:37;;;;;;;4.32;2.70;;;;;;;23.97;63.37;101779.81;6125347;23;20102;-71
2022/08/01 09:11:04;;;;;;;3.67;2.60;;;;;;;23.96;64.87;101793.97;6125299;23;20033;-71
2022/08/01 09:13:29;;;;;;;2.95;2.13;;;;;;;23.78;65.47;101797.72;6125369;23;20072;-74
2022/08/01 09:15:58;;;;;;;4.22;2.72;;;;;;;23.47;65.75;101793.75;6125173;23;20370;-72
2022/08/01 09:18:43;;;;;;;5.55;2.70;;;;;;;22.92;69.50;101779.28;6125234;23;20014;-72
2022/08/01 09:21:14;;;;;;;6.88;3.65;;;;;;;22.56;70.03;101795.09;6126764;23;20077;-72
2022/08/01 09:23:44;;;;;;;5.45;3.38;;;;;;;22.48;72.49;101803.72;6127812;23;20002;-72
2022/08/01 09:26:10;;;;;;;4.38;2.80;;;;;;;22.52;70.47;101794.56;6127091;23;20006;-72
2022/08/01 09:28:36;;;;;;;5.15;2.75;;;;;;;22.69;70.87;101797.31;6127102;23;20057;-69
2022/08/01 09:31:13;;;;;;;5.57;2.95;;;;;;;22.97;69.38;101804.16;6127326;23;20013;-73
2022/08/01 09:33:59;;;;;;;4.28;2.80;;;;;;;23.29;69.16;101808.81;6127546;23;20032;-72
2022/08/01 09:36:26;;;;;;;4.55;2.53;;;;;;;23.71;66.72;101803.63;6127706;23;20006;-73
2022/08/01 09:38:54;;;;;;;4.30;2.47;;;;;;;23.87;65.83;101807.31;6127834;23;20093;-70
2022/08/01 09:41:30;;;;;;;5.47;2.83;;;;;;;23.87;66.27;101792.31;6127221;23;20002;-72
2022/08/01 09:43:57;;;;;;;3.97;2.47;;;;;;;24.25;63.66;101809.38;6126941;23;20009;-73
2022/08/01 09:46:22;;;;;;;3.85;2.15;;;;;;;24.16;61.64;101780.50;6127637;23;20044;-72
2022/08/01 09:48:56;;;;;;;4.50;2.10;;;;;;;24.27;63.46;101799.50;6127003;23;20001;-72
2022/08/01 09:51:34;;;;;;;2.97;1.90;;;;;;;24.16;62.86;101802.44;6127124;23;20056;-73
2022/08/01 09:54:01;;;;;;;3.10;1.92;;;;;;;24.01;64.32;101814.63;6126999;23;20013;-72
2022/08/01 09:56:34;;;;;;;2.67;1.80;;;;;;;23.78;65.30;101816.16;6127021;23;20443;-72
2022/08/01 09:59:00;;;;;;;2.88;1.77;;;;;;;23.58;65.22;101813.75;6127024;23;20385;-72
2022/08/01 10:01:25;;;;;;;2.05;1.52;;;;;;;23.53;65.52;101812.59;6127105;23;20037;-72
2022/08/01 10:04:04;;;;;;;2.38;1.85;;;;;;;23.65;66.10;101804.25;6127143;23;20029;-76
2022/08/01 10:06:29;;;;;;;2.72;1.83;;;;;;;23.80;64.58;101811.59;6127206;23;20006;-76
2022/08/01 10:08:54;;;;;;;2.60;1.48;;;;;;;23.80;64.44;101822.97;6125513;23;20041;-75
2022/08/01 10:11:21;;;;;;;2.50;1.52;;;;;;;23.84;63.66;101812.91;6126964;23;20009;-73
2022/08/01 10:13:48;;;;;;;3.75;1.60;;;;;;;24.02;64.26;101816.28;6126751;23;20014;-73
2022/08/01 10:16:14;;;;;;;3.20;1.42;;;;;;;24.28;63.74;101816.16;6127002;23;20006;-73
2022/08/01 10:18:41;;;;;;;3.25;1.80;;;;;;;24.40;62.35;101822.81;6126783;23;20413;-70
2022/08/01 10:21:07;;;;;;;4.80;1.77;;;;;;;24.15;63.21;101811.34;6126929;23;20013;-72
2022/08/01 10:23:36;;;;;;;4.38;1.45;;;;;;;23.96;62.88;101814.25;6126689;23;20001;-70
2022/08/01 10:26:04;;;;;;;3.60;1.52;;;;;;;23.92;62.15;101831.41;6126299;23;20001;-69
2022/08/01 10:28:30;;;;;;;3.03;1.60;;;;;;;23.87;62.27;101818.69;6126819;23;20052;-71
2022/08/01 10:30:59;;;;;;;2.15;1.20;;;;;;;23.93;62.35;101828.59;6126641;23;20002;-72
2022/08/01 10:33:24;;;;;;;1.23;1.00;;;;;;;23.89;62.12;101835.22;6126692;23;20380;-71
2022/08/01 10:35:51;;;;;;;1.90;1.00;;;;;;;23.59;61.92;101825.16;6126693;23;20006;-75
2022/08/01 10:38:17;;;;;;;1.65;1.30;;;;;;;23.50;63.96;101833.97;6126633;23;20002;-73
2022/08/01 10:40:43;;;;;;;2.20;1.50;;;;;;;23.21;65.10;101839.59;6126244;23;20049;-73
2022/08/01 10:43:15;;;;;;;2.15;1.17;;;;;;;22.85;66.22;101844.91;6126478;23;20005;-71
2022/08/01 10:45:43;;;;;;;2.75;1.63;;;;;;;22.43;67.82;101831.50;6126375;23;20009;-71
2022/08/01 10:48:45;;;;;;;4.22;2.25;;;;;;;22.25;67.37;101837.56;6126460;23;20008;-70
2022/08/01 10:51:12;;;;;;;2.47;1.50;;;;;;;22.15;68.46;101844.69;6126694;23;20425;-70
2022/08/01 10:53:46;;;;;;;3.08;1.50;;;;;;;22.12;66.80;101849.41;6126110;23;20397;-71
2022/08/01 10:56:11;;;;;;;2.22;1.02;;;;;;;21.81;66.42;101839.13;6126117;23;20009;-72
2022/08/01 10:58:40;;;;;;;3.33;1.48;;;;;;;21.64;66.17;101856.53;6126451;23;20002;-71
2022/08/01 11:01:25;;;;;;;2.13;1.20;;;;;;;21.62;68.12;101853.19;6126445;23;20065;-69
2022/08/01 11:03:58;;;;;;;3.10;1.35;;;;;;;21.67;68.25;101858.03;6126500;23;20017;-70
2022/08/01 11:06:26;;;;;;;4.68;1.13;;;;;;;21.67;67.25;101866.75;6126656;23;20002;-70
2022/08/01 11:08:54;;;;;;;4.07;1.23;;;;;;;21.89;68.49;101868.16;6126449;23;20008;-69
2022/08/01 11:11:20;;;;;;;2.13;1.17;;;;;;;21.67;66.51;101839.63;6125083;23;20429;-68
2022/08/01 11:13:58;;;;;;;2.53;1.25;;;;;;;21.82;66.15;101872.34;6126065;23;20021;-70
2022/08/01 11:16:31;;;;;;;1.98;1.10;;;;;;;21.89;66.52;101864.72;6126577;23;20013;-70
2022/08/01 11:18:57;;;;;;;4.47;1.52;;;;;;;22.29;64.81;101862.59;6125977;23;20067;-70